Time;durP1;ratioP1;P1;durP2;ratioP2;P2;SDS_P1;SDS_P2;PMS_P1;PMS_P2;Temp;Humidity;BMP_temperature;BMP_pressure;BME280_temperature;BME280_humidity;BME280_pressure;Samples;Min_cycle;Max_cycle;Signal;HPM_P1;HPM_P2
2021/04/04 00:00:09;;;;;;;4.75;2.08;;;11.60;45.90;;;;;;5068995;28;20024;-80
2021/04/04 00:02:35;;;;;;;2.15;1.10;;;;;;;;;;5065890;28;20074;-79
2021/04/04 00:05:01;;;;;;;2.40;1.17;;;;;;;;;;5066710;28;20052;-79
2021/04/04 00:07:27;;;;;;;2.83;1.88;;;;;;;;;;5046929;28;20028;-79
2021/04/04 00:09:53;;;;;;;4.75;2.03;;;;;;;;;;5065958;28;20123;-80
2021/04/04 00:12:19;;;;;;;3.83;2.13;;;;;;;;;;5069673;28;20112;-78
2021/04/04 00:14:45;;;;;;;4.65;1.55;;;;;;;;;;5064658;28;20037;-79
2021/04/04 00:17:11;;;;;;;1.98;1.30;;;;;;;;;;5065292;28;20029;-79
2021/04/04 00:19:37;;;;;;;3.35;1.17;;;;;;;;;;5065375;28;20056;-79
2021/04/04 00:22:03;;;;;;;3.72;1.35;;;11.30;46.00;;;;;;5065253;28;20481;-78
2021/04/04 00:24:29;;;;;;;1.92;1.13;;;;;;;;;;5068608;28;20082;-79
2021/04/04 00:26:54;;;;;;;1.25;1.13;;;11.10;36.40;;;;;;5066844;28;20469;-79
2021/04/04 00:29:20;;;;;;;2.30;1.20;;;;;;;;;;5066580;28;20111;-79
2021/04/04 00:31:46;;;;;;;3.08;1.80;;;;;;;;;;5065532;28;20501;-79
2021/04/04 00:34:12;;;;;;;3.95;2.08;;;;;;;;;;5065172;28;20025;-79
2021/04/04 00:36:38;;;;;;;1.48;1.00;;;;;;;;;;5067215;28;20115;-79
2021/04/04 00:39:10;;;;;;;3.88;1.90;;;11.20;30.50;;;;;;5068512;28;20095;-79
2021/04/04 00:41:36;;;;;;;1.73;1.27;;;;;;;;;;5068754;28;20107;-79
2021/04/04 00:44:02;;;;;;;1.17;0.95;;;11.40;26.30;;;;;;5068698;28;20095;-79
2021/04/04 00:46:29;;;;;;;2.25;1.52;;;;;;;;;;5071040;28;20090;-79
2021/04/04 00:48:55;;;;;;;2.70;1.48;;;;;;;;;;5064381;28;20025;-78
2021/04/04 00:51:21;;;;;;;3.63;1.48;;;10.90;26.60;;;;;;5072665;28;20044;-79
2021/04/04 00:53:47;;;;;;;3.45;1.50;;;;;;;;;;5068738;28;20540;-79
2021/04/04 00:56:13;;;;;;;1.70;1.42;;;;;;;;;;5068579;28;20036;-78
2021/04/04 00:58:40;;;;;;;5.93;2.55;;;10.70;27.80;;;;;;5070651;28;20547;-78
2021/04/04 01:01:06;;;;;;;8.60;1.95;;;10.60;28.00;;;;;;5068744;28;20036;-79
2021/04/04 01:03:32;;;;;;;3.30;2.00;;;;;;;;;;5071765;28;20116;-79
2021/04/04 01:06:03;;;;;;;12.13;4.32;;;;;;;;;;5069868;28;20033;-80
2021/04/04 01:08:29;;;;;;;3.25;1.88;;;;;;;;;;5070802;28;20032;-79
2021/04/04 01:10:55;;;;;;;3.42;1.90;;;;;;;;;;5070743;28;20036;-78
2021/04/04 01:13:32;;;;;;;2.70;1.85;;;10.00;50.80;;;;;;5073418;28;20421;-78
2021/04/04 01:16:26;;;;;;;4.28;2.10;;;10.20;29.20;;;;;;5063645;28;20036;-78
2021/04/04 01:19:07;;;;;;;1.48;1.10;;;10.20;29.40;;;;;;5062031;28;20058;-78
2021/04/04 01:21:47;;;;;;;4.18;2.00;;;9.80;30.70;;;;;;5068251;28;20111;-79
2021/04/04 01:24:34;;;;;;;4.32;3.05;;;9.60;31.20;;;;;;5071106;28;20400;-79
2021/04/04 01:27:15;;;;;;;3.67;1.85;;;9.40;31.50;;;;;;5071038;28;20481;-78
2021/04/04 01:29:42;;;;;;;2.78;1.50;;;9.80;43.20;;;;;;5067415;28;20675;-79
2021/04/04 01:32:09;;;;;;;8.43;2.77;;;9.70;31.50;;;;;;5067980;28;20031;-79
2021/04/04 01:34:37;;;;;;;4.00;1.67;;;9.90;31.10;;;;;;5065357;28;20029;-78
2021/04/04 01:37:06;;;;;;;5.65;2.47;;;9.80;46.80;;;;;;5070277;28;20030;-78
2021/04/04 01:39:40;;;;;;;2.92;1.40;;;9.60;31.10;;;;;;5070693;28;20025;-78
2021/04/04 01:42:09;;;;;;;2.33;2.13;;;9.30;53.80;;;;;;5071761;28;20033;-79
2021/04/04 01:44:37;;;;;;;2.40;1.38;;;9.30;31.80;;;;;;5068830;28;20040;-78
2021/04/04 01:47:03;;;;;;;2.15;1.63;;;9.20;54.50;;;;;;5068169;28;20028;-78
2021/04/04 01:49:31;;;;;;;3.20;1.80;;;9.00;32.70;;;;;;5069113;28;20036;-79
2021/04/04 01:51:56;;;;;;;;;;;8.90;32.90;;;;;;5062243;28;20519;-79
2021/04/04 01:54:23;;;;;;;2.03;1.30;;;;;;;;;;5066533;28;19909;-79
2021/04/04 01:56:49;;;;;;;3.35;2.08;;;;;;;;;;5069849;28;20030;-79
2021/04/04 01:59:18;;;;;;;2.65;1.42;;;8.70;32.80;;;;;;5068805;28;20024;-78
2021/04/04 02:01:45;;;;;;;5.45;1.58;;;8.70;32.50;;;;;;5069133;28;20424;-79
2021/04/04 02:04:11;;;;;;;2.33;1.60;;;;;;;;;;5067667;28;20040;-78
2021/04/04 02:06:38;;;;;;;2.90;2.10;;;;;;;;;;5069712;28;20032;-78
2021/04/04 02:09:13;;;;;;;8.95;1.75;;;8.70;32.40;;;;;;5070514;28;20020;-79
2021/04/04 02:11:40;;;;;;;3.80;1.88;;;8.80;44.40;;;;;;5068070;28;20826;-79
2021/04/04 02:14:08;;;;;;;7.70;3.08;;;8.50;32.70;;;;;;5067146;28;20021;-80
2021/04/04 02:16:36;;;;;;;6.07;1.55;;;8.50;32.60;;;;;;5057936;28;20106;-78
2021/04/04 02:19:10;;;;;;;2.17;1.85;;;8.60;32.70;;;;;;5069947;28;20032;-78
2021/04/04 02:21:37;;;;;;;3.42;1.75;;;8.60;43.70;;;;;;5067306;28;20480;-79
2021/04/04 02:24:05;;;;;;;6.15;2.03;;;8.60;32.70;;;;;;5068817;28;20481;-78
2021/04/04 02:26:32;;;;;;;3.33;1.80;;;;;;;;;;5066778;28;20032;-78
2021/04/04 02:28:58;;;;;;;2.42;1.55;;;;;;;;;;5068193;28;20059;-79
2021/04/04 02:31:25;;;;;;;7.07;1.67;;;8.50;32.40;;;;;;5068014;28;20032;-79
2021/04/04 02:33:56;;;;;;;5.20;2.08;;;8.20;32.80;;;;;;5067957;28;20031;-78
2021/04/04 02:36:24;;;;;;;2.17;1.88;;;8.10;33.00;;;;;;5070740;28;20044;-78
2021/04/04 02:39:16;;;;;;;6.10;1.77;;;7.80;33.80;;;;;;5069286;28;20029;-79
2021/04/04 02:41:43;;;;;;;2.05;1.52;;;7.70;34.30;;;;;;5058338;28;20032;-79
2021/04/04 02:44:10;;;;;;;1.88;1.45;;;7.80;33.90;;;;;;5068392;28;20111;-78
2021/04/04 02:46:38;;;;;;;2.00;1.75;;;7.80;56.80;;;;;;5068147;28;20408;-78
2021/04/04 02:49:07;;;;;;;1.15;0.95;;;8.00;33.90;;;;;;5068339;28;20550;-78
2021/04/04 02:51:40;;;;;;;6.65;1.70;;;7.80;56.10;;;;;;5069219;28;20029;-78
2021/04/04 02:54:07;;;;;;;2.50;1.52;;;7.90;56.20;;;;;;5070506;28;20397;-78
2021/04/04 02:56:41;;;;;;;5.70;2.42;;;7.90;56.60;;;;;;5067647;28;20032;-78
2021/04/04 02:59:28;;;;;;;4.22;1.85;;;7.50;57.10;;;;;;5061955;28;20032;-78
2021/04/04 03:01:59;;;;;;;2.55;1.80;;;7.40;34.20;;;;;;5066000;28;20128;-78
2021/04/04 03:04:25;;;;;;;2.58;1.95;;;7.50;47.90;;;;;;5066289;28;20028;-78
2021/04/04 03:06:52;;;;;;;3.20;1.58;;;;;;;;;;5066283;28;20052;-80
2021/04/04 03:09:19;;;;;;;3.90;2.13;;;7.50;34.90;;;;;;5072484;28;20027;-80
2021/04/04 03:11:47;;;;;;;4.78;2.67;;;7.40;35.10;;;;;;5067319;28;20059;-78
2021/04/04 03:14:13;;;;;;;1.83;0.90;;;;;;;;;;5065797;28;20052;-79
2021/04/04 03:16:39;;;;;;;2.75;1.30;;;;;;;;;;5067741;28;20037;-78
2021/04/04 03:19:06;;;;;;;3.60;1.83;;;;;;;;;;5067797;28;20036;-79
2021/04/04 03:21:32;;;;;;;2.13;1.50;;;7.60;34.60;;;;;;5069054;28;20135;-79
2021/04/04 03:23:59;;;;;;;2.25;1.27;;;;;;;;;;5050190;28;20020;-78
2021/04/04 03:26:26;;;;;;;3.05;1.75;;;7.40;55.00;;;;;;5065492;28;20081;-78
2021/04/04 03:28:52;;;;;;;3.25;1.88;;;7.20;35.20;;;;;;5067920;28;20032;-78
2021/04/04 03:31:19;;;;;;;7.00;3.25;;;7.60;34.50;;;;;;5048366;28;20039;-79
2021/04/04 03:33:46;;;;;;;3.60;1.75;;;7.40;34.20;;;;;;5066929;28;20069;-78
2021/04/04 03:36:17;;;;;;;3.07;1.17;;;7.20;34.60;;;;;;5069811;28;20489;-78
2021/04/04 03:38:45;;;;;;;3.83;2.03;;;7.20;56.40;;;;;;5066410;28;20285;-78
2021/04/04 03:41:11;;;;;;;;;;;7.40;33.80;;;;;;5067862;28;20055;-79
2021/04/04 03:43:38;;;;;;;1.83;1.65;;;7.30;34.30;;;;;;5064761;28;19908;-79
2021/04/04 03:46:11;;;;;;;1.95;1.52;;;7.10;34.40;;;;;;5067578;28;20093;-78
2021/04/04 03:48:39;;;;;;;2.85;1.95;;;6.90;51.10;;;;;;5067921;28;20481;-78
2021/04/04 03:51:08;;;;;;;2.17;1.50;;;7.10;34.80;;;;;;5067399;28;20025;-78
2021/04/04 03:53:38;;;;;;;4.28;1.52;;;7.10;34.70;;;;;;5067160;28;20106;-78
2021/04/04 03:56:06;;;;;;;2.97;1.63;;;7.10;34.70;;;;;;5065484;28;20546;-79
2021/04/04 03:58:35;;;;;;;2.97;1.48;;;7.10;34.80;;;;;;5065476;28;20021;-79
2021/04/04 04:01:03;;;;;;;1.90;1.35;;;7.10;34.50;;;;;;5066864;28;20025;-78
2021/04/04 04:03:31;;;;;;;3.70;2.83;;;6.50;35.50;;;;;;5068466;28;20025;-78
2021/04/04 04:05:58;;;;;;;3.58;2.28;;;6.60;58.20;;;;;;5066929;28;20066;-80
2021/04/04 04:08:26;;;;;;;3.05;1.23;;;6.50;35.60;;;;;;5065285;28;20043;-78
2021/04/04 04:10:52;;;;;;;5.05;1.60;;;;;;;;;;5064852;28;20033;-78
2021/04/04 04:13:19;;;;;;;3.60;2.70;;;6.80;35.90;;;;;;5064702;28;20032;-79
2021/04/04 04:15:45;;;;;;;1.65;1.38;;;;;;;;;;5066774;28;20108;-79
2021/04/04 04:18:11;;;;;;;2.22;1.45;;;6.80;45.00;;;;;;5068445;28;20032;-78
2021/04/04 04:20:38;;;;;;;3.50;2.03;;;6.60;58.10;;;;;;5064899;28;20031;-78
2021/04/04 04:23:06;;;;;;;3.03;2.05;;;6.60;35.10;;;;;;5064829;28;20033;-79
2021/04/04 04:25:33;;;;;;;11.30;2.03;;;6.70;35.30;;;;;;5067731;28;20123;-78
2021/04/04 04:27:59;;;;;;;3.53;1.75;;;;;;;;;;5066839;28;20063;-78
2021/04/04 04:30:26;;;;;;;2.08;1.90;;;;;;;;;;5069008;28;20028;-78
2021/04/04 04:33:02;;;;;;;7.78;1.45;;;6.40;37.80;;;;;;5066653;28;20033;-79
2021/04/04 04:35:30;;;;;;;8.55;1.85;;;6.50;35.50;;;;;;5066363;28;20040;-79
2021/04/04 04:37:57;;;;;;;4.40;1.55;;;6.70;34.90;;;;;;5049443;28;20024;-79
2021/04/04 04:40:24;;;;;;;1.27;1.17;;;6.50;35.30;;;;;;5064412;28;20029;-78
2021/04/04 04:42:51;;;;;;;2.58;1.45;;;;;;;;;;5065833;28;20513;-80
2021/04/04 04:45:21;;;;;;;3.85;1.58;;;6.90;57.70;;;;;;5067645;28;20063;-79
2021/04/04 04:47:47;;;;;;;2.30;1.73;;;6.80;57.90;;;;;;5066243;28;20024;-78
2021/04/04 04:50:13;;;;;;;4.88;1.70;;;6.50;35.40;;;;;;5064979;28;20378;-80
2021/04/04 04:52:39;;;;;;;4.43;1.77;;;;;;;;;;5064764;28;20060;-78
2021/04/04 04:55:09;;;;;;;3.30;1.60;;;6.50;35.50;;;;;;5066085;28;20032;-78
2021/04/04 04:57:39;;;;;;;6.45;1.83;;;6.30;36.00;;;;;;5066011;28;20021;-79
2021/04/04 05:00:09;;;;;;;4.20;2.28;;;6.40;35.70;;;;;;5066039;28;20029;-78
2021/04/04 05:02:36;;;;;;;5.72;2.30;;;6.20;35.90;;;;;;5048357;28;20505;-78
2021/04/04 05:05:04;;;;;;;2.33;1.67;;;6.20;36.90;;;;;;5066402;28;20493;-78
2021/04/04 05:07:32;;;;;;;5.72;1.92;;;6.70;35.50;;;;;;5064320;28;20111;-77
2021/04/04 05:10:01;;;;;;;2.22;1.65;;;9.70;38.30;;;;;;5060891;28;20028;-78
2021/04/04 05:12:28;;;;;;;3.03;2.40;;;6.30;36.80;;;;;;5064889;28;20024;-79
2021/04/04 05:14:54;;;;;;;4.57;1.33;;;;;;;;;;5065687;28;20036;-78
2021/04/04 05:17:20;;;;;;;4.57;2.30;;;;;;;;;;5067248;28;20072;-78
2021/04/04 05:19:46;;;;;;;2.20;1.45;;;;;;;;;;5066425;28;20040;-79
2021/04/04 05:22:13;;;;;;;1.83;1.52;;;6.30;36.30;;;;;;5065443;28;20490;-79
2021/04/04 05:24:39;;;;;;;3.47;1.50;;;6.10;38.80;;;;;;5068025;28;20078;-78
2021/04/04 05:27:05;;;;;;;4.78;1.85;;;;;;;;;;5071689;28;20033;-78
2021/04/04 05:29:31;;;;;;;2.42;1.58;;;;;;;;;;5067892;28;20638;-78
2021/04/04 05:31:57;;;;;;;4.57;2.05;;;;;;;;;;5069035;28;20067;-78
2021/04/04 05:34:23;;;;;;;5.15;1.52;;;;;;;;;;5069706;28;20128;-80
2021/04/04 05:37:03;;;;;;;3.63;1.70;;;6.20;45.70;;;;;;5068628;28;20131;-78
2021/04/04 05:39:33;;;;;;;2.88;1.50;;;6.10;36.30;;;;;;5067819;28;20027;-78
2021/04/04 05:42:02;;;;;;;4.03;1.50;;;5.00;35.20;;;;;;5068915;28;20507;-79
2021/04/04 05:44:34;;;;;;;2.78;1.60;;;6.10;58.60;;;;;;5067916;28;20063;-80
2021/04/04 05:47:14;;;;;;;1.92;1.40;;;6.10;52.00;;;;;;5069949;28;20546;-78
2021/04/04 05:50:02;;;;;;;11.73;2.45;;;6.10;50.00;;;;;;5068540;28;20098;-78
2021/04/04 05:52:38;;;;;;;2.33;1.17;;;6.30;36.00;;;;;;5068189;28;20547;-80
2021/04/04 05:55:15;;;;;;;3.58;2.63;;;6.40;41.20;;;;;;5064884;28;20409;-78
2021/04/04 05:57:44;;;;;;;;;;;6.40;35.50;;;;;;5070162;28;20500;-78
2021/04/04 06:00:11;;;;;;;2.05;1.30;;;6.40;35.50;;;;;;5069845;28;19911;-79
2021/04/04 06:03:11;;;;;;;1.30;0.93;;;6.10;58.30;;;;;;5069462;28;20062;-79
2021/04/04 06:05:57;;;;;;;1.95;1.42;;;6.20;58.90;;;;;;5067678;28;20037;-78
2021/04/04 06:08:53;;;;;;;6.00;1.57;;;6.30;58.60;;;;;;5066985;28;20572;-79
2021/04/04 06:11:47;;;;;;;3.80;1.88;;;6.60;35.50;;;;;;5068433;28;20287;-78
2021/04/04 06:14:30;;;;;;;3.80;2.08;;;6.60;36.00;;;;;;5068094;28;20028;-78
2021/04/04 06:17:09;;;;;;;3.50;1.75;;;6.90;58.50;;;;;;5066949;28;20113;-79
2021/04/04 06:19:41;;;;;;;2.75;1.75;;;;;;;;;;5066687;28;20051;-78
2021/04/04 06:22:16;;;;;;;2.10;1.42;;;6.90;36.00;;;;;;5069380;28;20020;-78
2021/04/04 06:25:01;;;;;;;2.10;1.88;;;7.50;42.40;;;;;;5067655;28;20491;-78
2021/04/04 06:27:44;;;;;;;2.78;1.60;;;7.30;35.60;;;;;;5066810;28;20107;-78
2021/04/04 06:33:14;;;;;;;3.30;2.08;;;;;;;;;;5069843;28;20059;-79
2021/04/04 06:35:50;;;;;;;4.15;1.60;;;8.80;40.30;;;;;;5068636;28;20037;-78
2021/04/04 06:38:38;;;;;;;1.90;1.55;;;9.80;32.90;;;;;;5068447;28;20032;-80
2021/04/04 06:41:03;;;;;;;1.63;1.02;;;;;;;;;;5067027;28;20400;-80
2021/04/04 06:43:58;;;;;;;5.85;2.08;;;10.80;50.80;;;;;;5067679;28;20032;-78
2021/04/04 06:46:54;;;;;;;6.25;1.98;;;11.20;28.80;;;;;;5060987;28;20047;-79
2021/04/04 06:49:38;;;;;;;4.13;2.42;;;11.60;35.50;;;;;;5065887;28;20047;-78
2021/04/04 06:52:04;;;;;;;4.07;2.80;;;;;;;;;;5062330;28;20079;-79
2021/04/04 06:55:02;;;;;;;4.18;2.47;;;12.40;27.60;;;;;;5070013;28;20054;-79
2021/04/04 06:57:53;;;;;;;5.75;2.90;;;12.50;26.30;;;;;;5062859;28;20115;-79
2021/04/04 07:00:25;;;;;;;4.90;2.33;;;13.40;26.00;;;;;;5073818;28;20844;-79
2021/04/04 07:02:56;;;;;;;5.18;2.05;;;13.70;35.10;;;;;;5067573;28;20024;-79
2021/04/04 07:05:27;;;;;;;5.10;3.15;;;14.20;24.70;;;;;;5066877;28;20390;-79
2021/04/04 07:07:53;;;;;;;2.05;1.35;;;;;;;;;;5048679;28;20123;-79
2021/04/04 07:10:45;;;;;;;4.13;2.30;;;14.50;43.70;;;;;;5066927;28;20463;-79
2021/04/04 07:13:34;;;;;;;7.00;2.20;;;15.20;23.90;;;;;;5034800;28;20043;-79
2021/04/04 07:16:34;;;;;;;4.80;2.83;;;15.40;25.00;;;;;;5063931;28;20047;-79
2021/04/04 07:19:45;;;;;;;6.57;2.60;;;15.70;34.70;;;;;;5063347;28;20037;-80
2021/04/04 07:22:39;;;;;;;6.90;3.00;;;16.20;42.60;;;;;;5065164;28;20764;-79
2021/04/04 07:25:36;;;;;;;3.78;2.08;;;16.40;41.30;;;;;;5062126;28;20033;-79
2021/04/04 07:28:28;;;;;;;;;;;16.90;22.10;;;;;;5066387;28;20020;-79
2021/04/04 07:30:58;;;;;;;4.65;2.20;;;17.20;21.40;;;;;;5025973;28;19942;-79
2021/04/04 07:33:41;;;;;;;8.00;2.25;;;17.00;22.40;;;;;;5011046;28;20037;-79
2021/04/04 07:36:27;;;;;;;4.20;2.45;;;17.30;39.00;;;;;;5026452;28;20567;-79
2021/04/04 07:39:17;;;;;;;3.10;1.85;;;17.70;21.10;;;;;;5008987;28;20743;-79
2021/04/04 07:41:57;;;;;;;4.47;1.90;;;18.00;37.80;;;;;;5024713;28;20045;-79
2021/04/04 07:44:30;;;;;;;2.92;1.90;;;17.90;20.40;;;;;;5026061;28;20052;-79
2021/04/04 07:47:24;;;;;;;2.70;1.60;;;18.20;21.20;;;;;;5025986;28;20033;-79
2021/04/04 07:50:09;;;;;;;3.65;2.33;;;18.60;19.70;;;;;;5016959;28;20033;-79
2021/04/04 07:52:59;;;;;;;6.10;2.13;;;18.80;36.90;;;;;;5025529;28;20084;-79
2021/04/04 07:55:45;;;;;;;6.90;1.52;;;18.80;36.50;;;;;;5025044;28;20526;-78
2021/04/04 07:58:38;;;;;;;2.03;1.67;;;18.90;19.10;;;;;;5026035;28;20498;-79
2021/04/04 08:01:13;;;;;;;2.60;1.15;;;19.00;19.20;;;;;;5021269;28;20048;-79
2021/04/04 08:03:48;;;;;;;4.13;2.03;;;19.70;17.30;;;;;;5026146;28;20104;-79
2021/04/04 08:06:15;;;;;;;2.13;1.58;;;19.80;17.90;;;;;;5025463;28;20041;-80
2021/04/04 08:08:48;;;;;;;3.10;1.65;;;19.60;17.50;;;;;;5060770;28;20032;-80
2021/04/04 08:11:14;;;;;;;6.55;2.15;;;;;;;;;;5064769;28;20582;-79
2021/04/04 08:14:02;;;;;;;3.50;1.75;;;18.40;18.00;;;;;;5065135;28;20188;-80
2021/04/04 08:16:48;;;;;;;3.05;1.50;;;18.80;25.50;;;;;;5065584;28;20048;-79
2021/04/04 08:19:15;;;;;;;3.95;1.77;;;;;;;;;;5061995;28;20041;-80
2021/04/04 08:21:53;;;;;;;4.72;1.30;;;19.60;17.60;;;;;;5066758;28;20070;-80
2021/04/04 08:24:19;;;;;;;3.03;1.48;;;;;;;;;;5068497;28;20029;-80
2021/04/04 08:26:47;;;;;;;2.53;1.30;;;19.70;17.60;;;;;;5064558;28;20024;-80
2021/04/04 08:29:42;;;;;;;2.67;1.70;;;19.50;17.50;;;;;;5066388;28;20035;-80
2021/04/04 08:32:12;;;;;;;5.03;2.17;;;20.10;17.20;;;;;;5065211;28;20052;-80
2021/04/04 08:34:44;;;;;;;3.75;1.48;;;20.40;17.10;;;;;;5059221;28;20471;-80
2021/04/04 08:37:20;;;;;;;3.42;1.48;;;20.80;32.50;;;;;;5066848;28;20142;-79
2021/04/04 08:39:58;;;;;;;2.60;1.30;;;20.30;16.70;;;;;;5067582;28;20512;-80
2021/04/04 08:42:26;;;;;;;3.30;1.38;;;20.40;16.70;;;;;;5068624;28;20043;-80
2021/04/04 08:45:01;;;;;;;3.50;1.40;;;21.10;16.70;;;;;;5064450;28;20477;-79
2021/04/04 08:47:30;;;;;;;5.72;2.20;;;20.70;16.10;;;;;;5065422;28;20025;-79
2021/04/04 08:49:59;;;;;;;3.80;1.65;;;20.40;16.70;;;;;;5064782;28;20064;-79
2021/04/04 08:52:31;;;;;;;3.10;1.58;;;20.50;16.80;;;;;;5067392;28;20127;-80
2021/04/04 08:54:58;;;;;;;2.90;1.40;;;;;;;;;;5065203;28;20056;-81
2021/04/04 08:57:36;;;;;;;4.20;1.50;;;21.40;16.70;;;;;;5068196;28;20035;-79
2021/04/04 09:00:07;;;;;;;6.75;2.50;;;21.40;16.90;;;;;;5068821;28;20017;-80
2021/04/04 09:02:37;;;;;;;2.47;1.92;;;21.00;16.20;;;;;;5069416;28;20523;-79
2021/04/04 09:05:05;;;;;;;3.55;1.20;;;21.20;17.10;;;;;;5061757;28;20497;-78
2021/04/04 09:07:34;;;;;;;5.05;1.83;;;21.50;16.80;;;;;;5050157;28;20451;-79
2021/04/04 09:10:03;;;;;;;1.75;1.58;;;21.40;16.30;;;;;;5071537;28;20063;-79
2021/04/04 09:12:32;;;;;;;1.75;1.42;;;20.90;16.80;;;;;;5068608;28;20377;-79
2021/04/04 09:15:06;;;;;;;5.25;2.00;;;21.20;17.40;;;;;;5069646;28;20058;-79
2021/04/04 09:17:32;;;;;;;3.20;1.58;;;;;;;;;;5049252;28;20029;-79
2021/04/04 09:20:06;;;;;;;1.98;1.20;;;20.90;17.60;;;;;;5067707;28;20534;-80
2021/04/04 09:22:35;;;;;;;2.60;1.75;;;21.70;16.90;;;;;;5068323;28;20029;-79
2021/04/04 09:25:11;;;;;;;2.63;1.40;;;21.60;16.30;;;;;;5068108;28;20043;-79
2021/04/04 09:27:44;;;;;;;1.77;1.38;;;20.90;17.60;;;;;;5067762;28;20020;-79
2021/04/04 09:30:22;;;;;;;5.10;1.58;;;21.30;17.20;;;;;;5071367;28;20529;-80
2021/04/04 09:32:52;;;;;;;5.07;1.30;;;21.90;17.90;;;;;;5067679;28;20033;-80
2021/04/04 09:35:20;;;;;;;2.70;1.00;;;21.90;17.40;;;;;;5067862;28;20051;-78
2021/04/04 09:37:47;;;;;;;7.45;1.77;;;22.10;16.80;;;;;;5068100;28;20127;-80
2021/04/04 09:40:14;;;;;;;2.40;1.38;;;21.50;18.00;;;;;;5067436;28;20060;-80
2021/04/04 09:42:40;;;;;;;4.95;2.22;;;;;;;;;;5070530;28;20075;-79
2021/04/04 09:45:16;;;;;;;2.58;1.27;;;21.80;28.80;;;;;;5069067;28;20020;-79
2021/04/04 09:47:43;;;;;;;1.35;1.25;;;;;;;;;;5067135;28;20020;-80
2021/04/04 09:50:22;;;;;;;3.33;0.87;;;21.50;22.80;;;;;;5070177;28;20033;-79
2021/04/04 09:52:48;;;;;;;4.80;1.95;;;;;;;;;;5050399;28;20298;-79
2021/04/04 09:55:19;;;;;;;3.03;1.20;;;22.20;16.90;;;;;;5069132;28;20540;-78
2021/04/04 09:57:46;;;;;;;2.65;1.00;;;22.40;17.40;;;;;;5070066;28;20492;-80
2021/04/04 10:00:15;;;;;;;3.65;1.85;;;23.20;23.40;;;;;;5069567;28;20393;-78
2021/04/04 10:02:41;;;;;;;2.15;1.58;;;;;;;;;;5068562;28;20527;-79
2021/04/04 10:05:07;;;;;;;7.00;2.33;;;23.20;30.10;;;;;;5068217;28;20036;-80
2021/04/04 10:07:34;;;;;;;8.90;2.22;;;23.10;16.80;;;;;;5067375;28;20025;-80
2021/04/04 10:10:00;;;;;;;2.30;1.27;;;23.20;17.60;;;;;;5063961;28;20390;-80
2021/04/04 10:12:27;;;;;;;1.88;1.10;;;23.60;31.80;;;;;;5069749;28;20032;-79
2021/04/04 10:14:59;;;;;;;4.50;1.15;;;23.50;31.10;;;;;;5066562;28;20035;-79
2021/04/04 10:17:25;;;;;;;3.33;1.48;;;;;;;;;;5062659;28;20462;-79
2021/04/04 10:19:56;;;;;;;5.35;1.75;;;23.60;15.90;;;;;;5068507;28;20123;-80
2021/04/04 10:22:22;;;;;;;6.65;1.75;;;;;;;;;;5066959;28;20067;-80
2021/04/04 10:24:48;;;;;;;2.70;1.40;;;23.00;18.20;;;;;;5069071;28;20478;-80
2021/04/04 10:27:28;;;;;;;6.30;1.23;;;23.80;17.70;;;;;;5070909;28;20036;-80
2021/04/04 10:30:12;;;;;;;1.75;1.08;;;24.70;16.70;;;;;;5066756;28;20029;-81
2021/04/04 10:32:38;;;;;;;4.70;1.80;;;;;;;;;;5063563;28;20485;-80
2021/04/04 10:35:06;;;;;;;3.17;1.95;;;24.70;15.50;;;;;;5050104;28;20025;-80
2021/04/04 10:37:33;;;;;;;3.55;2.00;;;24.80;16.40;;;;;;5066569;28;20036;-79
2021/04/04 10:40:00;;;;;;;8.73;2.33;;;24.90;17.30;;;;;;5067251;28;20017;-79
2021/04/04 10:42:26;;;;;;;;;;;24.90;17.10;;;;;;5070940;28;20033;-80
2021/04/04 10:45:13;;;;;;;3.63;1.48;;;24.90;16.10;;;;;;5068534;28;19962;-79
2021/04/04 10:47:42;;;;;;;;;;;24.90;16.60;;;;;;5050378;28;20036;-79
2021/04/04 10:50:13;;;;;;;2.38;1.67;;;23.90;24.40;;;;;;5066269;28;19911;-79
2021/04/04 10:52:41;;;;;;;4.00;2.65;;;23.30;16.50;;;;;;5062921;28;20052;-80
2021/04/04 10:55:09;;;;;;;2.35;1.45;;;23.40;17.10;;;;;;5066238;28;20029;-80
2021/04/04 10:57:36;;;;;;;5.90;1.38;;;;;;;;;;5068822;28;20028;-80
2021/04/04 11:00:06;;;;;;;7.60;3.05;;;22.70;33.20;;;;;;5069611;28;20028;-80
2021/04/04 11:02:32;;;;;;;1.95;1.15;;;;;;;;;;5067401;28;20039;-80
2021/04/04 11:04:58;;;;;;;4.05;1.23;;;;;;;;;;5067447;28;20021;-80
2021/04/04 11:07:24;;;;;;;3.42;1.92;;;;;;;;;;5067940;28;20032;-79
2021/04/04 11:09:51;;;;;;;2.97;1.05;;;;;;;;;;5070156;28;20032;-78
2021/04/04 11:12:18;;;;;;;4.13;1.25;;;21.80;17.80;;;;;;5075660;28;20025;-79
2021/04/04 11:14:45;;;;;;;;;;;21.80;18.40;;;;;;5065657;28;20584;-79
2021/04/04 11:17:14;;;;;;;8.45;1.98;;;21.60;18.60;;;;;;5065986;28;19908;-79
2021/04/04 11:19:45;;;;;;;11.43;2.45;;;21.40;19.00;;;;;;5056359;28;20036;-79
2021/04/04 11:22:14;;;;;;;5.25;1.63;;;21.30;19.10;;;;;;5068343;28;20032;-80
2021/04/04 11:24:40;;;;;;;2.13;1.38;;;;;;;;;;5065647;28;20520;-78
2021/04/04 11:27:06;;;;;;;8.43;1.55;;;21.40;35.30;;;;;;5067417;28;20021;-79
2021/04/04 11:29:44;;;;;;;4.13;1.70;;;21.10;19.80;;;;;;5066268;28;20035;-79
2021/04/04 11:32:17;;;;;;;6.03;2.03;;;21.10;22.10;;;;;;5067288;28;20027;-80
2021/04/04 11:35:01;;;;;;;7.18;2.88;;;20.80;19.60;;;;;;5064341;28;20046;-80
2021/04/04 11:37:27;;;;;;;4.30;1.70;;;;;;;;;;5065941;28;20455;-81
2021/04/04 11:40:10;;;;;;;3.17;1.38;;;19.70;37.00;;;;;;5067242;28;20028;-79
2021/04/04 11:42:36;;;;;;;5.18;1.85;;;;;;;;;;5065249;28;20495;-79
2021/04/04 11:45:03;;;;;;;2.75;1.45;;;;;;;;;;5067634;28;20119;-79
2021/04/04 11:47:29;;;;;;;5.45;1.58;;;;;;;;;;5064798;28;20492;-79
2021/04/04 11:49:56;;;;;;;6.57;1.75;;;19.60;20.80;;;;;;5065197;28;20036;-78
2021/04/04 11:52:22;;;;;;;4.10;1.42;;;;;;;;;;5065148;28;20045;-79
2021/04/04 11:57:26;;;;;;;2.65;1.98;;;19.90;19.80;;;;;;5067508;28;20562;-79
2021/04/04 11:59:58;;;;;;;4.90;1.60;;;19.60;19.60;;;;;;5066917;28;20024;-79
2021/04/04 12:02:26;;;;;;;3.75;1.80;;;19.20;19.10;;;;;;5066918;28;20036;-79
2021/04/04 12:05:08;;;;;;;2.58;1.38;;;19.30;30.00;;;;;;5064832;28;20037;-80
2021/04/04 12:07:46;;;;;;;4.90;1.77;;;19.70;20.30;;;;;;5066447;28;20684;-79
2021/04/04 12:10:14;;;;;;;2.70;1.48;;;19.50;18.90;;;;;;5063830;28;20033;-79
2021/04/04 12:12:40;;;;;;;2.35;1.40;;;;;;;;;;5067373;28;20497;-78
2021/04/04 12:15:06;;;;;;;4.50;1.70;;;;;;;;;;5066179;28;20111;-79
2021/04/04 12:17:33;;;;;;;4.68;1.83;;;;;;;;;;5064033;28;20043;-80
2021/04/04 12:20:00;;;;;;;3.38;1.38;;;19.80;20.30;;;;;;5067477;28;20024;-79
2021/04/04 12:22:45;;;;;;;2.08;0.98;;;19.70;23.00;;;;;;5064997;28;20606;-80
2021/04/04 12:25:28;;;;;;;2.47;1.40;;;19.30;35.50;;;;;;5060223;28;20543;-79
2021/04/04 12:27:56;;;;;;;1.95;1.58;;;19.50;21.20;;;;;;5065871;28;20447;-79
2021/04/04 12:30:27;;;;;;;2.88;1.25;;;19.50;21.30;;;;;;5067848;28;20145;-79
2021/04/04 12:33:04;;;;;;;2.08;1.08;;;19.50;20.30;;;;;;5067089;28;20451;-79
2021/04/04 12:35:30;;;;;;;2.05;1.15;;;;;;;;;;5049914;28;20037;-79
2021/04/04 12:37:56;;;;;;;3.10;1.75;;;;;;;;;;5069013;28;20488;-79
2021/04/04 12:40:23;;;;;;;4.63;1.88;;;;;;;;;;5071006;28;20503;-80
2021/04/04 12:42:57;;;;;;;3.78;1.90;;;19.10;22.70;;;;;;5070022;28;20029;-80
2021/04/04 12:45:23;;;;;;;4.00;1.33;;;;;;;;;;5071803;28;20054;-79
2021/04/04 12:47:49;;;;;;;2.55;1.25;;;;;;;;;;5068693;28;20032;-80
2021/04/04 12:50:17;;;;;;;3.65;1.38;;;18.90;20.30;;;;;;5084078;28;20024;-79
2021/04/04 12:52:50;;;;;;;5.97;1.50;;;18.20;20.30;;;;;;5068517;28;20049;-79
2021/04/04 12:55:30;;;;;;;2.95;1.23;;;18.40;40.00;;;;;;5070642;28;20028;-79
2021/04/04 12:58:08;;;;;;;3.13;1.30;;;18.40;38.80;;;;;;5068705;28;20062;-79
2021/04/04 13:00:37;;;;;;;3.40;1.40;;;18.60;23.50;;;;;;5067407;28;20055;-80
2021/04/04 13:03:11;;;;;;;10.02;2.67;;;18.70;22.70;;;;;;5069997;28;20081;-80
2021/04/04 13:05:45;;;;;;;1.42;1.15;;;18.20;39.50;;;;;;5072123;28;20081;-80
2021/04/04 13:08:11;;;;;;;3.20;1.30;;;;;;;;;;5062770;28;20017;-80
2021/04/04 13:10:38;;;;;;;4.28;1.25;;;18.70;21.90;;;;;;5067786;28;20107;-81
2021/04/04 13:13:16;;;;;;;4.75;1.45;;;18.80;25.00;;;;;;5068378;28;20025;-80
2021/04/04 13:15:42;;;;;;;1.33;0.88;;;;;;;;;;5071032;28;20056;-79
2021/04/04 13:18:24;;;;;;;2.88;1.50;;;18.70;22.10;;;;;;5071455;28;20017;-79
2021/04/04 13:20:52;;;;;;;2.75;1.33;;;18.50;22.80;;;;;;5067947;28;20029;-81
2021/04/04 13:23:18;;;;;;;3.28;1.10;;;;;;;;;;5068315;28;20017;-80
2021/04/04 13:25:44;;;;;;;3.25;1.70;;;18.90;22.20;;;;;;5067947;28;20032;-79
2021/04/04 13:28:10;;;;;;;3.50;1.35;;;;;;;;;;5069123;28;20024;-80
2021/04/04 13:30:36;;;;;;;5.90;2.15;;;;;;;;;;5052979;28;20040;-79
2021/04/04 13:33:03;;;;;;;3.63;1.20;;;;;;;;;;5071142;28;20027;-79
2021/04/04 13:35:34;;;;;;;3.38;1.13;;;19.10;37.60;;;;;;5067543;28;20527;-79
2021/04/04 13:38:03;;;;;;;6.57;1.85;;;19.00;24.30;;;;;;5070821;28;20112;-79
2021/04/04 13:40:31;;;;;;;1.75;1.52;;;19.00;22.00;;;;;;5065900;28;20032;-79
2021/04/04 13:42:59;;;;;;;2.05;1.15;;;19.00;23.40;;;;;;5068717;28;20017;-81
2021/04/04 13:45:46;;;;;;;8.90;1.98;;;18.40;21.70;;;;;;5071049;28;20029;-79
2021/04/04 13:48:14;;;;;;;3.22;1.75;;;18.70;22.70;;;;;;5071045;28;20028;-80